Danbury, IA (51019)

12:04 PM CDT on July 06, 2015 (GMT -0500)
The Danbury Review | | Change Station
CLOSE
Current Station
Personal Weather Station
Location: Danbury, IA
Elevation: 1162 ft
Nearby Weather Stations

Elev 1162 ft 42.24 °N, 95.72 °W | Updated 4 minutes ago

Overcast
Overcast
72.2 °F
Feels Like 72.2 °F
N
4.0
Wind Variable Wind from West
Gusts 5.0 mph

Today
High -- | Low -- °F
--% Chance of Precip.
Yesterday
High -- | Low -- °F
Precip. -- in
5:53 AM 9:01 PM
Waning Gibbous, 74% visible
Pressure 29.89 in
Visibility 10.0 miles
Clouds Few 1100 ft
Few 3700 ft
Mostly Cloudy 10000 ft
Dew Point 70 °F
Humidity 93%
Rainfall 1.05 in
Snow Depth Not available.
UV 6 out of 12
Pollen .60 out of 12
Air Quality Not available.
Flu Activity Not available.
METAR KDNS 061655Z AUTO VRB04KT 10SM FEW011 FEW037 BKN100 23/21 A2989 RMK AO2 P0001

More Conditions Fewer Conditions

Pressure 29.89 in
Visibility 10.0 miles
Clouds Few 1100 ft
Few 3700 ft
Mostly Cloudy 10000 ft
Dew Point 70 °F
Humidity 93%
Rainfall 1.05 in
Snow Depth Not available.
UV 6 out of 12
Pollen .60 out of 12
Air Quality Not available.
Flu Activity Not available.
METAR KDNS 061655Z AUTO VRB04KT 10SM FEW011 FEW037 BKN100 23/21 A2989 RMK AO2 P0001

More Conditions Fewer Conditions

10-Day Weather Forecast

×

Almanac

Astronomy

Jul. 06, 2015 Rise Set
Actual Time
Civil Twilight
Nautical Twilight
Astronomical Twilight
Moon
Length of Visible Light
Length of Day
Tomorrow will be .
, % of the Moon is Illuminated

Today's Extremes

State Highs State Lows

Community

WunderPhotos

Upload Photos

1,835,604 photos uploaded!

WunderBlogs® & News

Nearby

Air Quality

  Air Quality AQ Index Pollutant
Not available.

Snow Depth

Station Depth Elevation

Earthquake Activity

City Distance Mag. Time & Date
Minimum magnitude displayed is 2.5.

Coastal Water Temperatures

Place Temperature

Stations

Nearby Weather Stations

Station Location Temp. Windchill Dew Point Humidity Wind Precip. Elev Updated Type